Impacts METAR Board INFO
IDs:

KMCO - Orlando Intl, FL, US

Updated at: 0525 UTC 20 Jan 2018
Potential Impact None Slight Moderate High
Time19/17Z 19/18Z 19/19Z 19/20Z 19/21Z 19/22Z 19/23Z 20/00Z 20/01Z 20/02Z 20/03Z 20/04Z 20/05Z
VIS10 10 10 10 10 10 10 10 10 10 10 10 10
CIG300 300 300 -- -- -- -- -- -- -- -- -- --
CoverBKNBKNBKNSCTFEWFEWFEWCLRCLRCLRCLRFEWFEW
FltCatVFRVFRVFRVFRVFRVFRVFRVFRVFRVFRVFRVFRVFR
WX--------------------------
WDir00000000704000360
WSpd3 0 0 4 0 3 0 0 6 4 0 0 3
WGst-- -- -- -- -- -- -- -- -- -- -- -- --
Raw hourly METARs
KMCO 191653Z VRB03KT 10SM BKN300 16/02 A3034 RMK AO2 SLP273 T01560022
KMCO 191753Z 00000KT 10SM BKN300 16/03 A3031 RMK AO2 SLP263 T01610028 10167 20028 58019
KMCO 191853Z 00000KT 10SM BKN300 17/03 A3028 RMK AO2 SLP252 T01670033
KMCO 191953Z VRB04KT 10SM SCT300 17/03 A3026 RMK AO2 SLP246 T01720028
KMCO 192053Z 00000KT 10SM FEW300 18/02 A3025 RMK AO2 SLP241 T01780022 56022
KMCO 192153Z VRB03KT 10SM FEW300 18/02 A3024 RMK AO2 SLP239 T01780017
KMCO 192253Z 00000KT 10SM FEW300 16/02 A3024 RMK AO2 SLP241 T01610017
KMCO 192353Z 00000KT 10SM CLR 14/02 A3025 RMK AO2 SLP244 T01440022 10189 20133 53003
KMCO 200053Z 07006KT 10SM CLR 12/07 A3027 RMK AO2 SLP251 T01220067
KMCO 200153Z 04004KT 10SM CLR 11/07 A3028 RMK AO2 SLP254 T01110072
KMCO 200253Z 00000KT 10SM CLR 10/07 A3029 RMK AO2 SLP255 T01000072 51011
KMCO 200353Z 00000KT 10SM FEW300 09/07 A3030 RMK AO2 SLP258 T00940072
KMCO 200453Z 36003KT 10SM FEW300 08/07 A3029 RMK AO2 SLP256 T00830067 401890017